Terminal Aerodrome Forecast
Issued by NWS

Home | Current Version | Previous Version | Text Only | Print | Product List | Glossary On
Versions: 1 2 3 4 5 6 7 8 9 10 11 12 13 14 15 16 17 18 19
000
FTUS43 KGLD 141120
TAFMCK
TAF
KMCK 141120Z 1412/1512 29011KT P6SM BKN070
     FM141600 33015G25KT P6SM SCT050 BKN100
     FM142200 34012KT P6SM SCT120
     FM150100 30009KT P6SM SKC=

USA.gov is the U.S. government's official web portal to all federal, state and local government web resources and services.